Time;durP1;ratioP1;P1;durP2;ratioP2;P2;SDS_P1;SDS_P2;PMS_P1;PMS_P2;Temp;Humidity;BMP_temperature;BMP_pressure;BME280_temperature;BME280_humidity;BME280_pressure;Samples;Min_cycle;Max_cycle;Signal;HPM_P1;HPM_P2
2021/10/20 00:00:27;;;;;;;;;;;14.70;99.90;;;;;;5095860;28;20348;-71
2021/10/20 00:02:55;;;;;;;;;;;14.70;99.90;;;;;;5096116;28;19924;-71
2021/10/20 00:05:21;;;;;;;;;;;14.70;99.90;;;;;;5095880;28;20376;-71
2021/10/20 00:07:49;;;;;;;;;;;14.60;99.90;;;;;;5095717;28;20280;-71
2021/10/20 00:10:16;;;;;;;;;;;14.60;99.90;;;;;;5095696;28;19930;-71
2021/10/20 00:12:43;;;;;;;;;;;14.60;99.90;;;;;;5095574;28;19931;-71
2021/10/20 00:15:10;;;;;;;;;;;14.60;99.90;;;;;;5095753;28;19999;-71
2021/10/20 00:17:38;;;;;;;;;;;14.60;99.90;;;;;;5095930;28;19923;-71
2021/10/20 00:20:08;;;;;;;;;;;14.60;99.90;;;;;;5095592;28;19931;-71
2021/10/20 00:22:35;;;;;;;;;;;14.60;99.90;;;;;;5095559;28;20367;-71
2021/10/20 00:25:02;;;;;;;;;;;14.60;99.90;;;;;;5095795;28;19930;-71
2021/10/20 00:27:29;;;;;;;;;;;14.60;99.90;;;;;;5095258;28;19973;-71
2021/10/20 00:29:56;;;;;;;;;;;14.50;99.90;;;;;;5095317;28;20252;-71
2021/10/20 00:32:23;;;;;;;;;;;14.50;99.90;;;;;;5095512;28;20005;-71
2021/10/20 00:34:51;;;;;;;;;;;14.50;99.90;;;;;;5095509;28;19924;-71
2021/10/20 00:37:18;;;;;;;;;;;14.50;99.90;;;;;;5095320;28;19935;-71
2021/10/20 00:39:45;;;;;;;;;;;14.50;99.90;;;;;;5094440;28;19924;-71
2021/10/20 00:42:12;;;;;;;;;;;14.50;99.90;;;;;;5095287;28;19924;-71
2021/10/20 00:44:45;;;;;;;;;;;14.50;99.90;;;;;;5095287;28;19950;-71
2021/10/20 00:47:12;;;;;;;;;;;14.50;99.90;;;;;;5095417;28;20279;-71
2021/10/20 00:49:39;;;;;;;;;;;14.50;99.90;;;;;;5095157;28;19934;-71
2021/10/20 00:52:07;;;;;;;;;;;14.60;99.90;;;;;;5094748;28;19924;-71
2021/10/20 00:54:34;;;;;;;;;;;14.50;99.90;;;;;;5029005;28;1875660;-71
2021/10/20 00:57:01;;;;;;;;;;;14.50;99.90;;;;;;5095930;28;19924;-71
2021/10/20 00:59:28;;;;;;;;;;;14.50;99.90;;;;;;5096041;28;19924;-71
2021/10/20 01:01:54;;;;;;;;;;;14.50;99.90;;;;;;5095845;28;20295;-71
2021/10/20 01:04:21;;;;;;;;;;;14.50;99.90;;;;;;5095929;28;19934;-71
2021/10/20 01:06:48;;;;;;;;;;;14.50;99.90;;;;;;5095649;28;19924;-71
2021/10/20 01:09:16;;;;;;;;;;;14.50;99.90;;;;;;5095711;28;19924;-71
2021/10/20 01:11:43;;;;;;;;;;;14.50;99.90;;;;;;5095621;28;19924;-71
2021/10/20 01:14:10;;;;;;;;;;;14.50;99.90;;;;;;5095719;28;19923;-71
2021/10/20 01:16:37;;;;;;;;;;;14.40;99.90;;;;;;5095662;28;19924;-71
2021/10/20 01:19:04;;;;;;;;;;;14.40;99.90;;;;;;5095543;28;19928;-71
2021/10/20 01:21:32;;;;;;;;;;;14.30;99.90;;;;;;5095396;28;20360;-71
2021/10/20 01:23:59;;;;;;;;;;;14.30;99.90;;;;;;5095268;28;19924;-71
2021/10/20 01:26:26;;;;;;;;;;;14.30;99.90;;;;;;5095632;28;19924;-71
2021/10/20 01:28:53;;;;;;;;;;;14.30;99.90;;;;;;5095549;28;19924;-71
2021/10/20 01:31:19;;;;;;;;;;;14.30;99.90;;;;;;5095344;28;19998;-71
2021/10/20 01:33:46;;;;;;;;;;;14.30;99.90;;;;;;5095247;28;19934;-71
2021/10/20 01:36:13;;;;;;;;;;;14.20;99.90;;;;;;5095357;28;19938;-71
2021/10/20 01:38:41;;;;;;;;;;;14.20;99.90;;;;;;5095251;28;20297;-71
2021/10/20 01:41:08;;;;;;;;;;;14.20;99.90;;;;;;5095487;28;19935;-71
2021/10/20 01:43:37;;;;;;;;;;;14.20;99.90;;;;;;5095350;28;20255;-71
2021/10/20 01:46:03;;;;;;;;;;;14.10;99.90;;;;;;5095585;28;19923;-71
2021/10/20 01:48:30;;;;;;;;;;;14.10;99.90;;;;;;5095118;28;20359;-71
2021/10/20 01:50:57;;;;;;;;;;;14.20;99.90;;;;;;5095063;28;20256;-71
2021/10/20 01:53:24;;;;;;;;;;;14.20;99.90;;;;;;5094753;28;19945;-71
2021/10/20 01:55:52;;;;;;;;;;;14.20;99.90;;;;;;5095332;28;19924;-71
2021/10/20 01:58:19;;;;;;;;;;;14.20;99.90;;;;;;5095201;28;19932;-71
2021/10/20 02:00:46;;;;;;;;;;;14.20;99.90;;;;;;5095387;28;19936;-71
2021/10/20 02:03:13;;;;;;;;;;;14.20;99.90;;;;;;5097252;28;20370;-71
2021/10/20 02:05:40;;;;;;;;;;;14.20;99.90;;;;;;5099279;28;19934;-71
2021/10/20 02:08:06;;;;;;;;;;;14.20;99.90;;;;;;5099397;28;19958;-71
2021/10/20 02:10:33;;;;;;;;;;;14.20;99.90;;;;;;5099318;28;19935;-71
2021/10/20 02:13:01;;;;;;;;;;;14.20;99.90;;;;;;5099084;28;19935;-71
2021/10/20 02:15:28;;;;;;;;;;;14.20;99.90;;;;;;5098905;28;19935;-71
2021/10/20 02:17:55;;;;;;;;;;;14.20;99.90;;;;;;5098920;28;19924;-71
2021/10/20 02:20:22;;;;;;;;;;;14.10;99.90;;;;;;5098916;28;19924;-71
2021/10/20 02:22:49;;;;;;;;;;;14.10;99.90;;;;;;5098808;28;20341;-71
2021/10/20 02:25:16;;;;;;;;;;;14.10;99.90;;;;;;5099034;28;19928;-71
2021/10/20 02:27:43;;;;;;;;;;;14.10;99.90;;;;;;5098663;28;20035;-71
2021/10/20 02:30:11;;;;;;;;;;;14.10;99.90;;;;;;5098834;28;20314;-71
2021/10/20 02:32:38;;;;;;;;;;;14.10;99.90;;;;;;5098647;28;19934;-71
2021/10/20 02:35:06;;;;;;;;;;;14.00;99.90;;;;;;5098567;28;19947;-71
2021/10/20 02:37:32;;;;;;;;;;;14.00;99.90;;;;;;5098969;28;19982;-71
2021/10/20 02:39:59;;;;;;;;;;;14.00;99.90;;;;;;5098646;28;19924;-71
2021/10/20 02:42:26;;;;;;;;;;;14.10;99.90;;;;;;5098506;28;20260;-71
2021/10/20 02:44:53;;;;;;;;;;;14.00;99.90;;;;;;5098431;28;20375;-71
2021/10/20 02:47:21;;;;;;;;;;;14.00;99.90;;;;;;5098247;28;19930;-71
2021/10/20 02:49:48;;;;;;;;;;;14.00;99.90;;;;;;5098276;28;19924;-71
2021/10/20 02:52:15;;;;;;;;;;;14.00;99.90;;;;;;5098297;28;20351;-71
2021/10/20 02:54:42;;;;;;;;;;;14.00;99.90;;;;;;5098213;28;19924;-71
2021/10/20 02:57:08;;;;;;;;;;;13.90;99.90;;;;;;5098339;28;19924;-71
2021/10/20 02:59:35;;;;;;;;;;;13.90;99.90;;;;;;5098223;28;20126;-71
2021/10/20 03:02:02;;;;;;;;;;;13.90;99.90;;;;;;5097995;28;20268;-71
2021/10/20 03:04:30;;;;;;;;;;;13.90;99.90;;;;;;5097986;28;19925;-70
2021/10/20 03:06:57;;;;;;;;;;;13.90;99.90;;;;;;5098184;28;20229;-71
2021/10/20 03:09:24;;;;;;;;;;;13.80;99.90;;;;;;5098125;28;19934;-71
2021/10/20 03:11:51;;;;;;;;;;;13.80;99.90;;;;;;5097994;28;19924;-71
2021/10/20 03:14:18;;;;;;;;;;;13.80;99.90;;;;;;5097398;28;19924;-71
2021/10/20 03:16:44;;;;;;;;;;;13.80;99.90;;;;;;5097684;28;20368;-71
2021/10/20 03:19:11;;;;;;;;;;;13.70;99.90;;;;;;5097904;28;19924;-70
2021/10/20 03:21:39;;;;;;;;;;;13.70;99.90;;;;;;5098021;28;19924;-71
2021/10/20 03:24:07;;;;;;;;;;;13.60;99.90;;;;;;5097802;28;19935;-71
2021/10/20 03:26:34;;;;;;;;;;;13.60;99.90;;;;;;5097612;28;20336;-71
2021/10/20 03:29:01;;;;;;;;;;;13.60;99.90;;;;;;5096679;28;20259;-70
2021/10/20 03:31:27;;;;;;;;;;;13.50;99.90;;;;;;5097583;28;20352;-71
2021/10/20 03:33:54;;;;;;;;;;;13.50;99.90;;;;;;5097395;28;19924;-71
2021/10/20 03:36:21;;;;;;;;;;;13.50;99.90;;;;;;5097713;28;19924;-71
2021/10/20 03:38:49;;;;;;;;;;;13.40;99.90;;;;;;5097457;28;19924;-71
2021/10/20 03:41:16;;;;;;;;;;;13.40;99.90;;;;;;5097216;28;19934;-71
2021/10/20 03:43:43;;;;;;;;;;;13.40;99.90;;;;;;5097465;28;19924;-71
2021/10/20 03:46:10;;;;;;;;;;;13.40;99.90;;;;;;5097182;28;19925;-70
2021/10/20 03:48:37;;;;;;;;;;;13.40;99.90;;;;;;5097221;28;20382;-70
2021/10/20 03:51:03;;;;;;;;;;;13.40;99.90;;;;;;5097417;28;19936;-71
2021/10/20 03:53:30;;;;;;;;;;;13.40;99.90;;;;;;5097098;28;19924;-70
2021/10/20 03:55:58;;;;;;;;;;;13.30;99.90;;;;;;5097182;28;19924;-71
2021/10/20 03:58:25;;;;;;;;;;;13.30;99.90;;;;;;5096983;28;19924;-71
2021/10/20 04:00:54;;;;;;;;;;;13.20;99.90;;;;;;5096860;28;19923;-70
2021/10/20 04:03:21;;;;;;;;;;;13.20;99.90;;;;;;5097153;28;19924;-70
2021/10/20 04:05:48;;;;;;;;;;;13.10;99.90;;;;;;5097008;28;19924;-70
2021/10/20 04:08:15;;;;;;;;;;;13.10;99.90;;;;;;5096882;28;19940;-70
2021/10/20 04:10:42;;;;;;;;;;;13.00;99.90;;;;;;5096924;28;19924;-70
2021/10/20 04:13:10;;;;;;;;;;;13.00;99.90;;;;;;5096765;28;20337;-70
2021/10/20 04:15:37;;;;;;;;;;;12.90;99.90;;;;;;5097003;28;19924;-70
2021/10/20 04:18:04;;;;;;;;;;;12.90;99.90;;;;;;5097094;28;19924;-70
2021/10/20 04:20:31;;;;;;;;;;;12.80;99.90;;;;;;5096574;28;20407;-70
2021/10/20 04:22:57;;;;;;;;;;;12.80;99.90;;;;;;5096830;28;19924;-70
2021/10/20 04:25:24;;;;;;;;;;;12.70;99.90;;;;;;5095967;28;19924;-70
2021/10/20 04:27:51;;;;;;;;;;;12.80;99.90;;;;;;5096438;28;19924;-70
2021/10/20 04:30:20;;;;;;;;;;;12.70;99.90;;;;;;5096379;28;19934;-70
2021/10/20 04:32:47;;;;;;;;;;;12.70;99.90;;;;;;5096259;28;19935;-70
2021/10/20 04:35:13;;;;;;;;;;;12.70;99.90;;;;;;5096372;28;19930;-70
2021/10/20 04:37:40;;;;;;;;;;;12.70;99.90;;;;;;5096375;28;19924;-70
2021/10/20 04:40:08;;;;;;;;;;;12.60;99.90;;;;;;5096409;28;19938;-70
2021/10/20 04:42:35;;;;;;;;;;;12.60;99.90;;;;;;5096326;28;19924;-70
2021/10/20 04:45:02;;;;;;;;;;;12.60;99.90;;;;;;5096334;28;19935;-70
2021/10/20 04:47:30;;;;;;;;;;;12.50;99.90;;;;;;5096353;28;19924;-70
2021/10/20 04:49:57;;;;;;;;;;;12.50;99.90;;;;;;5096155;28;19928;-73
2021/10/20 04:52:24;;;;;;;;;;;12.50;99.90;;;;;;5095854;28;19924;-73
2021/10/20 04:54:51;;;;;;;;;;;12.50;99.90;;;;;;5096115;28;19982;-73
2021/10/20 04:57:18;;;;;;;;;;;12.40;99.90;;;;;;5096106;28;20266;-73
2021/10/20 04:59:45;;;;;;;;;;;12.50;99.90;;;;;;5096333;28;20263;-73
2021/10/20 05:02:12;;;;;;;;;;;12.40;99.90;;;;;;5095834;28;20352;-73
2021/10/20 05:04:40;;;;;;;;;;;12.40;99.90;;;;;;5095777;28;19924;-73
2021/10/20 05:07:07;;;;;;;;;;;12.40;99.90;;;;;;5095816;28;19939;-73
2021/10/20 05:09:34;;;;;;;;;;;12.40;99.90;;;;;;5095553;28;20356;-73
2021/10/20 05:12:00;;;;;;;;;;;12.40;99.90;;;;;;5095861;28;19924;-73
2021/10/20 05:14:27;;;;;;;;;;;12.40;99.90;;;;;;5095747;28;19928;-73
2021/10/20 05:16:54;;;;;;;;;;;12.40;99.90;;;;;;5095808;28;19924;-73
2021/10/20 05:19:21;;;;;;;;;;;12.40;99.90;;;;;;5095660;28;20353;-73
2021/10/20 05:21:49;;;;;;;;;;;12.40;99.90;;;;;;5095377;28;19935;-73
2021/10/20 05:24:16;;;;;;;;;;;12.30;99.90;;;;;;5095451;28;19924;-73
2021/10/20 05:26:43;;;;;;;;;;;12.30;99.90;;;;;;5095515;28;20252;-73
2021/10/20 05:29:10;;;;;;;;;;;12.30;99.90;;;;;;5095464;28;19925;-73
2021/10/20 05:31:36;;;;;;;;;;;12.30;99.90;;;;;;5095330;28;19936;-73
2021/10/20 05:34:03;;;;;;;;;;;12.20;99.90;;;;;;5095465;28;19924;-73
2021/10/20 05:36:30;;;;;;;;;;;12.20;99.90;;;;;;5095328;28;19928;-73
2021/10/20 05:38:59;;;;;;;;;;;12.10;99.90;;;;;;5095251;28;19938;-73
2021/10/20 05:41:26;;;;;;;;;;;12.10;99.90;;;;;;5095692;28;19950;-72
2021/10/20 05:43:53;;;;;;;;;;;12.10;99.90;;;;;;5095215;28;20355;-73
2021/10/20 05:46:20;;;;;;;;;;;12.10;99.90;;;;;;5095272;28;19935;-73
2021/10/20 05:48:46;;;;;;;;;;;12.00;99.90;;;;;;5095328;28;19965;-73
2021/10/20 05:51:13;;;;;;;;;;;12.00;99.90;;;;;;5095304;28;19954;-73
2021/10/20 05:53:40;;;;;;;;;;;12.00;99.90;;;;;;5095006;28;19934;-73
2021/10/20 05:56:08;;;;;;;;;;;12.00;99.90;;;;;;5095563;28;19928;-73
2021/10/20 05:58:35;;;;;;;;;;;12.00;99.90;;;;;;5095284;28;19925;-73
2021/10/20 06:01:02;;;;;;;;;;;12.00;99.90;;;;;;5095143;28;19924;-73
2021/10/20 06:03:29;;;;;;;;;;;12.00;99.90;;;;;;5095083;28;19924;-73
2021/10/20 06:05:56;;;;;;;;;;;12.00;99.90;;;;;;5095112;28;19924;-73
2021/10/20 06:08:23;;;;;;;;;;;12.10;99.90;;;;;;5095061;28;19978;-73
2021/10/20 06:10:49;;;;;;;;;;;12.10;99.90;;;;;;5095469;28;19935;-73
2021/10/20 06:13:18;;;;;;;;;;;12.10;99.90;;;;;;5095455;28;19924;-73
2021/10/20 06:15:44;;;;;;;;;;;12.20;99.90;;;;;;5095073;28;20350;-73
2021/10/20 06:18:12;;;;;;;;;;;12.30;99.90;;;;;;5095184;28;19928;-73
2021/10/20 06:20:39;;;;;;;;;;;12.30;99.90;;;;;;5095259;28;20022;-73
2021/10/20 06:23:06;;;;;;;;;;;12.30;99.90;;;;;;5094879;28;19924;-73
2021/10/20 06:25:33;;;;;;;;;;;12.40;99.90;;;;;;5094939;28;19924;-73
2021/10/20 06:27:59;;;;;;;;;;;12.40;99.90;;;;;;5094927;28;19951;-73
2021/10/20 06:30:28;;;;;;;;;;;12.40;99.90;;;;;;5094748;28;20366;-73
2021/10/20 06:32:54;;;;;;;;;;;12.40;99.90;;;;;;5095094;28;19990;-73
2021/10/20 06:35:21;;;;;;;;;;;12.40;99.90;;;;;;5094806;28;19931;-72
2021/10/20 06:37:48;;;;;;;;;;;12.40;99.90;;;;;;5094713;28;20366;-73
2021/10/20 06:40:15;;;;;;;;;;;12.40;99.90;;;;;;5094999;28;19951;-73
2021/10/20 06:42:42;;;;;;;;;;;12.40;99.90;;;;;;5094632;28;19924;-73
2021/10/20 06:45:09;;;;;;;;;;;12.40;99.90;;;;;;5094762;28;19924;-73
2021/10/20 06:47:37;;;;;;;;;;;12.40;99.90;;;;;;5094735;28;19946;-73
2021/10/20 06:50:04;;;;;;;;;;;12.40;99.90;;;;;;5098191;28;19924;-73
2021/10/20 06:52:31;;;;;;;;;;;12.40;99.90;;;;;;5098393;28;19924;-73
2021/10/20 06:54:58;;;;;;;;;;;12.40;99.90;;;;;;5098529;28;20295;-73
2021/10/20 06:57:25;;;;;;;;;;;12.40;99.90;;;;;;5098113;28;19924;-73
2021/10/20 06:59:51;;;;;;;;;;;12.40;99.90;;;;;;5098392;28;19924;-73
2021/10/20 07:02:18;;;;;;;;;;;12.40;99.90;;;;;;5098133;28;19928;-73
2021/10/20 07:04:47;;;;;;;;;;;12.40;99.90;;;;;;5098038;28;19924;-73
2021/10/20 07:07:14;;;;;;;;;;;12.40;99.90;;;;;;5098003;28;19938;-73
2021/10/20 07:09:41;;;;;;;;;;;12.40;99.90;;;;;;5098245;28;19924;-72
2021/10/20 07:12:08;;;;;;;;;;;12.40;99.90;;;;;;5098320;28;19934;-73
2021/10/20 07:14:35;;;;;;;;;;;12.40;99.90;;;;;;5097801;28;19924;-73
2021/10/20 07:17:04;;;;;;;;;;;12.40;99.90;;;;;;5097778;28;20033;-73
2021/10/20 07:19:31;;;;;;;;;;;12.40;99.90;;;;;;5097691;28;20336;-73
2021/10/20 07:22:00;;;;;;;;;;;12.40;99.90;;;;;;5097783;28;20356;-73
2021/10/20 07:24:26;;;;;;;;;;;12.50;99.90;;;;;;5098084;28;19950;-73
2021/10/20 07:26:53;;;;;;;;;;;12.50;99.90;;;;;;5097617;28;20272;-73
2021/10/20 07:29:20;;;;;;;;;;;12.50;99.90;;;;;;5097763;28;19924;-73
2021/10/20 07:31:47;;;;;;;;;;;12.60;99.90;;;;;;5097536;28;19924;-73
2021/10/20 07:34:14;;;;;;;;;;;12.60;99.90;;;;;;5097658;28;19924;-73
2021/10/20 07:36:42;;;;;;;;;;;12.70;99.90;;;;;;5097362;28;20299;-73
2021/10/20 07:39:11;;;;;;;;;;;12.70;99.90;;;;;;5097539;28;19997;-73
2021/10/20 07:41:38;;;;;;;;;;;12.70;99.90;;;;;;5097458;28;19932;-73
2021/10/20 07:44:05;;;;;;;;;;;12.80;99.90;;;;;;5097309;28;19924;-73
2021/10/20 07:46:32;;;;;;;;;;;12.80;99.90;;;;;;5097234;28;19924;-70
2021/10/20 07:48:59;;;;;;;;;;;12.80;99.90;;;;;;5097395;28;19928;-70
2021/10/20 07:51:26;;;;;;;;;;;12.80;99.90;;;;;;5097355;28;19924;-70
2021/10/20 07:53:53;;;;;;;;;;;12.90;99.90;;;;;;5097055;28;19924;-70
2021/10/20 07:56:21;;;;;;;;;;;12.90;99.90;;;;;;5097297;28;20348;-70
2021/10/20 07:58:48;;;;;;;;;;;12.90;99.90;;;;;;5097171;28;19924;-70
2021/10/20 08:01:15;;;;;;;;;;;12.90;99.90;;;;;;5095966;28;19928;-70
2021/10/20 08:03:42;;;;;;;;;;;13.00;99.90;;;;;;5097083;28;19977;-70
2021/10/20 08:06:08;;;;;;;;;;;13.00;99.90;;;;;;5097039;28;19938;-71
2021/10/20 08:08:35;;;;;;;;;;;13.00;99.90;;;;;;5096977;28;20283;-70
2021/10/20 08:11:02;;;;;;;;;;;13.00;99.90;;;;;;5096693;28;19924;-70
2021/10/20 08:13:30;;;;;;;;;;;13.00;99.90;;;;;;5096724;28;19938;-70
2021/10/20 08:15:57;;;;;;;;;;;13.00;99.90;;;;;;5096888;28;19947;-70
2021/10/20 08:18:24;;;;;;;;;;;13.10;99.90;;;;;;5096566;28;20344;-70
2021/10/20 08:20:51;;;;;;;;;;;13.10;99.90;;;;;;5096719;28;19977;-71
2021/10/20 08:23:18;;;;;;;;;;;13.10;99.90;;;;;;5096674;28;19924;-70
2021/10/20 08:25:45;;;;;;;;;;;13.10;99.90;;;;;;5096447;28;20356;-70
2021/10/20 08:28:12;;;;;;;;;;;13.10;99.90;;;;;;5096441;28;20302;-70
2021/10/20 08:30:40;;;;;;;;;;;13.10;99.90;;;;;;5096695;28;19935;-70
2021/10/20 08:33:07;;;;;;;;;;;13.10;99.90;;;;;;5096809;28;19934;-70
2021/10/20 08:35:37;;;;;;;;;;;13.10;99.90;;;;;;5096371;28;20352;-70
2021/10/20 08:38:04;;;;;;;;;;;13.00;99.90;;;;;;5096293;28;19924;-71
2021/10/20 08:40:32;;;;;;;;;;;13.00;99.90;;;;;;5096167;28;19925;-70
2021/10/20 08:42:58;;;;;;;;;;;13.00;99.90;;;;;;5096153;28;19928;-71
2021/10/20 08:45:25;;;;;;;;;;;12.90;99.90;;;;;;5096574;28;19946;-71
2021/10/20 08:47:54;;;;;;;;;;;12.80;99.90;;;;;;5096247;28;19924;-71
2021/10/20 08:50:21;;;;;;;;;;;12.80;99.90;;;;;;5096208;28;19924;-71
2021/10/20 08:52:48;;;;;;;;;;;12.80;99.90;;;;;;5095790;28;19934;-71
2021/10/20 08:55:16;;;;;;;;;;;12.80;99.90;;;;;;5096252;28;20251;-71
2021/10/20 08:57:43;;;;;;;;;;;12.80;99.90;;;;;;5095951;28;19936;-71
2021/10/20 09:00:11;;;;;;;;;;;12.70;99.90;;;;;;5096049;28;19925;-70
2021/10/20 09:02:40;;;;;;;;;;;12.70;99.90;;;;;;5095802;28;19934;-70
2021/10/20 09:05:08;;;;;;;;;;;12.70;99.90;;;;;;5095993;28;19924;-70
2021/10/20 09:07:37;;;;;;;;;;;12.80;99.90;;;;;;5095997;28;19930;-70
2021/10/20 09:10:04;;;;;;;;;;;12.70;99.90;;;;;;5095647;28;20276;-70
2021/10/20 09:12:37;;;;;;;;;;;12.80;99.90;;;;;;5095709;28;19934;-70
2021/10/20 09:15:04;;;;;;;;;;;12.70;99.90;;;;;;5095806;28;20019;-70
2021/10/20 09:17:42;;;;;;;;;;;12.70;99.90;;;;;;5095834;28;19924;-71
2021/10/20 09:20:16;;;;;;;;;;;12.70;99.90;;;;;;5095629;28;20156;-70
2021/10/20 09:22:53;;;;;;;;;;;12.70;99.90;;;;;;5095461;28;19924;-70
2021/10/20 09:25:20;;;;;;;;;;;12.80;99.90;;;;;;5095634;28;19963;-70
2021/10/20 09:27:46;;;;;;;;;;;12.80;99.90;;;;;;5095650;28;20291;-70
2021/10/20 09:30:14;;;;;;;;;;;12.80;99.90;;;;;;5095352;28;19935;-71
2021/10/20 09:32:41;;;;;;;;;;;12.80;99.90;;;;;;5095311;28;19924;-71
2021/10/20 09:35:10;;;;;;;;;;;12.80;99.90;;;;;;5095234;28;20299;-71
2021/10/20 09:37:39;;;;;;;;;;;12.80;99.90;;;;;;5095628;28;19924;-70
2021/10/20 09:40:07;;;;;;;;;;;12.90;99.90;;;;;;5095355;28;19924;-71
2021/10/20 09:42:40;;;;;;;;;;;12.90;99.90;;;;;;5095422;28;19924;-71
2021/10/20 09:45:08;;;;;;;;;;;12.90;99.90;;;;;;5095244;28;19924;-71
2021/10/20 09:47:34;;;;;;;;;;;12.90;99.90;;;;;;5095178;28;19938;-71
2021/10/20 09:50:01;;;;;;;;;;;13.00;99.90;;;;;;5095102;28;20366;-71
2021/10/20 09:52:28;;;;;;;;;;;13.00;99.90;;;;;;5095124;28;19924;-71
2021/10/20 09:54:56;;;;;;;;;;;13.00;99.90;;;;;;5094997;28;19924;-71
2021/10/20 09:57:29;;;;;;;;;;;13.10;99.90;;;;;;5095273;28;20253;-71
2021/10/20 09:59:56;;;;;;;;;;;13.10;99.90;;;;;;5095076;28;19924;-71
2021/10/20 10:02:23;;;;;;;;;;;13.10;99.90;;;;;;5094946;28;19924;-71
2021/10/20 10:04:50;;;;;;;;;;;13.10;99.90;;;;;;5095146;28;19924;-71
2021/10/20 10:07:17;;;;;;;;;;;13.10;99.90;;;;;;5095199;28;20255;-71
2021/10/20 10:09:43;;;;;;;;;;;13.20;99.90;;;;;;5095302;28;19935;-71
2021/10/20 10:12:12;;;;;;;;;;;13.20;99.90;;;;;;5094933;28;19938;-71
2021/10/20 10:14:40;;;;;;;;;;;13.20;99.90;;;;;;5094903;28;19930;-72
2021/10/20 10:17:07;;;;;;;;;;;13.20;99.90;;;;;;5094814;28;19924;-72
2021/10/20 10:19:35;;;;;;;;;;;13.20;99.90;;;;;;5094928;28;19924;-72
2021/10/20 10:22:05;;;;;;;;;;;13.30;99.90;;;;;;5094789;28;20253;-72
2021/10/20 10:24:33;;;;;;;;;;;13.30;99.90;;;;;;5097588;28;20350;-72
2021/10/20 10:27:01;;;;;;;;;;;13.30;99.90;;;;;;5099077;28;19932;-72
2021/10/20 10:29:30;;;;;;;;;;;13.20;99.90;;;;;;5098776;28;19942;-72
2021/10/20 10:31:58;;;;;;;;;;;13.20;99.90;;;;;;5098700;28;19931;-72
2021/10/20 10:34:26;;;;;;;;;;;13.10;99.90;;;;;;5098709;28;19935;-72
2021/10/20 10:36:53;;;;;;;;;;;13.10;99.90;;;;;;5098746;28;20259;-72
2021/10/20 10:39:20;;;;;;;;;;;13.10;99.90;;;;;;5098738;28;19928;-72
2021/10/20 10:41:48;;;;;;;;;;;13.10;99.90;;;;;;5098726;28;19935;-70
2021/10/20 10:44:16;;;;;;;;;;;13.20;99.90;;;;;;5098504;28;19924;-76
2021/10/20 10:46:52;;;;;;;;;;;13.20;99.90;;;;;;5098327;28;19924;-74
2021/10/20 10:49:23;;;;;;;;;;;13.30;99.90;;;;;;5098674;28;19924;-72
2021/10/20 10:52:02;;;;;;;;;;;13.40;99.90;;;;;;5098325;28;19924;-70
2021/10/20 10:54:31;;;;;;;;;;;13.60;99.90;;;;;;5098164;28;19924;-70
2021/10/20 10:57:06;;;;;;;;;;;13.80;99.90;;;;;;5098120;28;19924;-70
2021/10/20 10:59:33;;;;;;;;;;;13.90;99.90;;;;;;5097684;28;19935;-70
2021/10/20 11:02:01;;;;;;;;;;;14.00;99.90;;;;;;5098469;28;20366;-70
2021/10/20 11:04:34;;;;;;;;;;;14.00;99.90;;;;;;5098061;28;20023;-70
2021/10/20 11:07:01;;;;;;;;;;;14.10;99.90;;;;;;5098008;28;20352;-70
2021/10/20 11:09:31;;;;;;;;;;;14.10;99.90;;;;;;5097989;28;19930;-70
2021/10/20 11:11:58;;;;;;;;;;;14.10;99.90;;;;;;5098210;28;20233;-70
2021/10/20 11:14:25;;;;;;;;;;;14.10;99.90;;;;;;5097941;28;19935;-70
2021/10/20 11:16:56;;;;;;;;;;;14.20;99.90;;;;;;5098031;28;19930;-70
2021/10/20 11:19:24;;;;;;;;;;;14.30;99.90;;;;;;5097962;28;19943;-70
2021/10/20 11:21:51;;;;;;;;;;;14.30;99.90;;;;;;5097805;28;19930;-70
2021/10/20 11:24:18;;;;;;;;;;;14.30;99.90;;;;;;5097913;28;19935;-70
2021/10/20 11:26:46;;;;;;;;;;;14.30;99.90;;;;;;5098096;28;19934;-70
2021/10/20 11:29:13;;;;;;;;;;;14.30;99.90;;;;;;5097723;28;19928;-69
2021/10/20 11:31:40;;;;;;;;;;;14.30;99.90;;;;;;5097911;28;19939;-69
2021/10/20 11:34:17;;;;;;;;;;;14.30;99.90;;;;;;5097318;28;19924;-69
2021/10/20 11:36:45;;;;;;;;;;;14.40;99.90;;;;;;5097665;28;20005;-69
2021/10/20 11:39:12;;;;;;;;;;;14.40;99.90;;;;;;5097436;28;19934;-69
2021/10/20 11:41:39;;;;;;;;;;;14.40;99.90;;;;;;5097579;28;19935;-69
2021/10/20 11:44:06;;;;;;;;;;;14.40;99.90;;;;;;5097850;28;19934;-69
2021/10/20 11:46:33;;;;;;;;;;;14.40;99.90;;;;;;5097380;28;20348;-69
2021/10/20 11:49:00;;;;;;;;;;;14.50;99.90;;;;;;5097522;28;20356;-69
2021/10/20 11:51:27;;;;;;;;;;;14.60;99.90;;;;;;5097234;28;19950;-69
2021/10/20 11:53:56;;;;;;;;;;;14.60;99.90;;;;;;5096912;28;19924;-70
2021/10/20 11:56:22;;;;;;;;;;;14.70;99.90;;;;;;5097254;28;19924;-69
2021/10/20 11:58:49;;;;;;;;;;;14.60;99.90;;;;;;5097261;28;20252;-69
2021/10/20 12:01:16;;;;;;;;;;;14.50;99.90;;;;;;5097223;28;20359;-69
2021/10/20 12:03:43;;;;;;;;;;;14.40;99.90;;;;;;5097001;28;20379;-69
2021/10/20 12:06:11;;;;;;;;;;;14.30;99.90;;;;;;5096900;28;19928;-69
2021/10/20 12:08:40;;;;;;;;;;;14.20;99.90;;;;;;5096877;28;20355;-69
2021/10/20 12:11:09;;;;;;;;;;;14.20;99.90;;;;;;5097001;28;19924;-69
2021/10/20 12:13:36;;;;;;;;;;;14.20;99.90;;;;;;5096466;28;20352;-69
2021/10/20 12:16:03;;;;;;;;;;;14.30;99.90;;;;;;5096906;28;19984;-69
2021/10/20 12:18:30;;;;;;;;;;;14.40;99.90;;;;;;5096573;28;19927;-69
2021/10/20 12:20:57;;;;;;;;;;;14.50;99.90;;;;;;5095568;28;19924;-69
2021/10/20 12:23:30;;;;;;;;;;;14.50;99.90;;;;;;5096861;28;19934;-69
2021/10/20 12:25:57;;;;;;;;;;;14.50;99.90;;;;;;5097046;28;19924;-69
2021/10/20 12:28:26;;;;;;;;;;;14.50;99.90;;;;;;5096608;28;20351;-70
2021/10/20 12:30:53;;;;;;;;;;;14.50;99.90;;;;;;5096326;28;19934;-69
2021/10/20 12:33:21;;;;;;;;;;;14.50;99.90;;;;;;5096301;28;19924;-70
2021/10/20 12:35:48;;;;;;;;;;;14.60;99.90;;;;;;5096174;28;19928;-70
2021/10/20 12:38:16;;;;;;;;;;;14.60;99.90;;;;;;5096450;28;20275;-70
2021/10/20 12:40:43;;;;;;;;;;;14.60;99.90;;;;;;5096482;28;19924;-70
2021/10/20 12:43:11;;;;;;;;;;;14.50;99.90;;;;;;5096171;28;19924;-69
2021/10/20 12:45:40;;;;;;;;;;;14.50;99.90;;;;;;5095751;28;19964;-70
2021/10/20 12:48:07;;;;;;;;;;;14.50;99.90;;;;;;5095894;28;19924;-69
2021/10/20 12:50:34;;;;;;;;;;;14.50;99.90;;;;;;5089610;28;19928;-70
2021/10/20 12:53:01;;;;;;;;;;;14.50;99.90;;;;;;5091817;28;20275;-70
2021/10/20 12:55:28;;;;;;;;;;;14.60;99.90;;;;;;5095475;28;19924;-69
2021/10/20 12:57:57;;;;;;;;;;;14.60;99.90;;;;;;5095775;28;20229;-70
2021/10/20 13:00:26;;;;;;;;;;;14.60;99.90;;;;;;5095883;28;19960;-70
2021/10/20 13:02:54;;;;;;;;;;;14.60;99.90;;;;;;5095959;28;19924;-69
2021/10/20 13:05:21;;;;;;;;;;;14.60;99.90;;;;;;5096063;28;19930;-69
2021/10/20 13:07:53;;;;;;;;;;;14.40;99.90;;;;;;5093378;28;19934;-69
2021/10/20 13:10:20;;;;;;;;;;;14.20;99.90;;;;;;5094270;28;20022;-69
2021/10/20 13:12:49;;;;;;;;;;;14.10;99.90;;;;;;5095856;28;19924;-69
2021/10/20 13:15:16;;;;;;;;;;;13.90;99.90;;;;;;5095845;28;20015;-69
2021/10/20 13:17:43;;;;;;;;;;;13.80;99.90;;;;;;5095767;28;20275;-70
2021/10/20 13:20:12;;;;;;;;;;;13.60;99.90;;;;;;5095690;28;19924;-70
2021/10/20 13:22:39;;;;;;;;;;;13.50;99.90;;;;;;5095496;28;20367;-69
2021/10/20 13:25:06;;;;;;;;;;;13.40;99.90;;;;;;5095844;28;19930;-70
2021/10/20 13:27:34;;;;;;;;;;;13.30;99.90;;;;;;5095638;28;20019;-70
2021/10/20 13:30:00;;;;;;;;;;;13.10;99.90;;;;;;5095371;28;20363;-70
2021/10/20 13:32:27;;;;;;;;;;;13.00;99.90;;;;;;5095385;28;20341;-70
2021/10/20 13:34:54;;;;;;;;;;;12.80;99.90;;;;;;5095353;28;19931;-70
2021/10/20 13:37:22;;;;;;;;;;;12.50;99.90;;;;;;5095422;28;19939;-70
2021/10/20 13:39:49;;;;;;;;;;;12.20;99.90;;;;;;5095375;28;19924;-69
2021/10/20 13:42:16;;;;;;;;;;;12.00;99.90;;;;;;5095721;28;19946;-93
2021/10/20 13:44:43;;;;;;;;;;;11.80;99.90;;;;;;5095521;28;19935;-71
2021/10/20 13:47:10;;;;;;;;;;;11.60;99.90;;;;;;5095466;28;19946;-72
2021/10/20 13:49:37;;;;;;;;;;;11.50;99.90;;;;;;5095547;28;19924;-77
2021/10/20 13:52:04;;;;;;;;;;;11.50;99.90;;;;;;5095237;28;19934;-91
2021/10/20 13:54:32;;;;;;;;;;;11.50;99.90;;;;;;5095378;28;19938;-71
2021/10/20 13:56:59;;;;;;;;;;;11.50;99.90;;;;;;5094616;28;20270;-70
2021/10/20 13:59:26;;;;;;;;;;;11.50;99.90;;;;;;5099028;28;20321;-70
2021/10/20 14:01:53;;;;;;;;;;;11.50;99.90;;;;;;5099213;28;19934;-70
2021/10/20 14:04:20;;;;;;;;;;;11.50;99.90;;;;;;5099346;28;20390;-71
2021/10/20 14:06:52;;;;;;;;;;;11.60;99.90;;;;;;5099238;28;19934;-70
2021/10/20 14:09:19;;;;;;;;;;;11.60;99.90;;;;;;5099047;28;19924;-71
2021/10/20 14:11:48;;;;;;;;;;;11.60;99.90;;;;;;5099043;28;20393;-70
2021/10/20 14:14:14;;;;;;;;;;;11.60;99.90;;;;;;5099256;28;19935;-70
2021/10/20 14:16:41;;;;;;;;;;;11.70;99.90;;;;;;5099132;28;19928;-70